Obert, Nebraska
Current Conditions -  °F | °C
As of 12:55 PM on Sunday 23 Nov 2014 (Local Time) from KLCG Reporting Station
Overcast Overcast  
Wind Chill: 34°   Ceiling: 7000
Heat Index: 42°   Visibility: 10mi
Dew Point: 37°   Wind: 16mph
Humidity: 82%   Direction: 330°NNW
Pressure: 29.53"   Gusts: 24mph
Location:  42.5999°N, 96.8805°W
Report Text: KLCG 231855Z AUTO 33014G21KT 10SM SCT050 BKN070 OVC075 06/03 A2953 RMK AO2 P0001 T00570028
Loading
Personal Weather Stations






























Interactive Weather Map New forecast layout! Learn more

10-Day Weather Forecast

Advertisements
Track Severe Weather on mobile